map of GBB home
GBB - Airport
Location
City:  Gabala, Qebele (Ibala), Azerbaijan
Near (Alt.):Qabala
Name:Gabala International Airport
ICAO:UBBQ
IATA:GBB

Details
Type:Airport (Aerodrome, Airfield)
Use:Public/Civil, International (customs port of entry)
Latitude:4048'32"N (40.808750)
Longitude:4743'31"E (47.725194)
Elevation:1109 ft (338 m)
Variation:6.49E (WMM2015v2 magnetic declination)
0.08 annual change
Runways:1
Longest:11811 × 197 ft (3600 × 60 m), paved

Time
Time Zone:UTC+4
Local Time:

Weather
METAR:UBBQ 041400Z 22007KT 9999 SCT012 BKN022 06/04 Q1030 R34/////// NOSIG RMK MT OBSC
TAF:UBBQ 040512Z 0406/0506 16006KT 3000 BR SCT003 OVC015 TX05/0408Z TN00/0503Z
TEMPO 0406/0408 2000 RA OVC002
BECMG 0408/0410 9999 NSW SCT012 OVC025
TEMPO 0410/0424 5000 -RA BKN008 OVC017

Related Locations
Nearby:
Farthest:GMR: 11199 mi / 18024 km
Mangareva [Totegegie], Gambier Islands, PF

Find:

   beyond  
but within

Other Information
Maps:
NOTAMs:
Links:
Sources:

  
  • flag of Azerbaijan
  

Sectional Chart

Flight Planning
at skyvector.com

Satellite Image

Google Maps Satellite view

 

Copyright © 2004-2019 Karl L. Swartz. All rights reserved.
The Great Circle Mapper name and logo are trademarks of the Great Circle Mapper.
All other trademarks mentioned herein belong to their respective owners.
Please see credits for attibutions and further copyright information.

  Follow gcmap on Facebook Follow gcmap on Twitter GCmap on LinkedIn

hCard Microformat

Geo Microformat